createdAt,value
2022-10-13T00:01:18.901Z,60.93
2022-10-13T00:03:49.057Z,61.61
2022-10-13T00:06:18.713Z,61.81
2022-10-13T00:08:45.734Z,61.48
2022-10-13T00:11:14.048Z,61.28
2022-10-13T00:13:41.440Z,60.78
2022-10-13T00:16:08.563Z,61.82
2022-10-13T00:18:35.197Z,61.58
2022-10-13T00:21:07.183Z,63.13
2022-10-13T00:23:34.643Z,62.13
2022-10-13T00:26:07.491Z,61.89
2022-10-13T00:28:34.145Z,62.74
2022-10-13T00:31:00.662Z,61.60
2022-10-13T00:33:27.207Z,62.35
2022-10-13T00:35:54.055Z,61.40
2022-10-13T00:38:22.261Z,62.18
2022-10-13T00:40:56.087Z,61.16
2022-10-13T00:43:31.177Z,62.54
2022-10-13T00:45:57.747Z,62.16
2022-10-13T00:48:26.808Z,63.55
2022-10-13T00:50:53.646Z,62.88
2022-10-13T00:53:22.973Z,61.66
2022-10-13T00:55:51.770Z,63.06
2022-10-13T00:58:19.662Z,63.14
2022-10-13T01:00:49.111Z,63.37
2022-10-13T01:03:16.129Z,62.90
2022-10-13T01:05:42.905Z,62.84
2022-10-13T01:08:10.333Z,61.37
2022-10-13T01:11:10.542Z,62.68
2022-10-13T01:14:03.174Z,61.21
2022-10-13T01:16:35.384Z,60.84
2022-10-13T01:19:29.900Z,61.04
2022-10-13T01:22:27.613Z,59.86
2022-10-13T01:25:14.383Z,59.39
2022-10-13T01:27:50.317Z,60.17
2022-10-13T01:30:19.419Z,60.07
2022-10-13T01:32:59.888Z,60.07
2022-10-13T01:35:54.230Z,60.80
2022-10-13T01:38:32.899Z,60.37
2022-10-13T01:41:10.965Z,60.96
2022-10-13T01:43:42.836Z,61.86
2022-10-13T01:46:14.131Z,61.10
2022-10-13T01:48:42.585Z,61.65
2022-10-13T01:51:13.971Z,61.34
2022-10-13T01:53:41.192Z,60.91
2022-10-13T01:56:07.741Z,60.96
2022-10-13T01:58:35.629Z,62.92
2022-10-13T02:01:20.474Z,62.04
2022-10-13T02:03:55.956Z,62.15
2022-10-13T02:06:29.614Z,60.69
2022-10-13T02:09:10.890Z,60.54
2022-10-13T02:11:39.429Z,59.35
2022-10-13T02:14:14.315Z,59.79
2022-10-13T02:16:43.092Z,59.98
2022-10-13T02:19:17.187Z,59.54
2022-10-13T02:21:44.290Z,58.97
2022-10-13T02:24:11.041Z,58.87
2022-10-13T02:26:38.285Z,58.60
2022-10-13T02:29:12.418Z,58.51
2022-10-13T02:31:39.774Z,57.99
2022-10-13T02:34:06.426Z,59.00
2022-10-13T02:36:33.504Z,58.68
2022-10-13T02:39:00.351Z,58.43
2022-10-13T02:41:26.805Z,57.57
2022-10-13T02:43:53.573Z,58.26
2022-10-13T02:46:20.045Z,57.64
2022-10-13T02:48:46.541Z,58.75
2022-10-13T02:51:12.998Z,58.22
2022-10-13T02:53:40.171Z,57.63
2022-10-13T02:56:07.638Z,57.02
2022-10-13T02:58:34.941Z,57.28
2022-10-13T03:01:13.511Z,57.58
2022-10-13T03:03:40.621Z,57.08
2022-10-13T03:06:07.829Z,56.92
2022-10-13T03:08:35.388Z,57.03
2022-10-13T03:11:02.227Z,56.85
2022-10-13T03:13:28.714Z,57.17
2022-10-13T03:15:55.266Z,57.72
2022-10-13T03:18:21.750Z,58.22
2022-10-13T03:21:07.024Z,57.63
2022-10-13T03:23:34.023Z,57.13
2022-10-13T03:26:00.718Z,57.15
2022-10-13T03:28:27.422Z,56.77
2022-10-13T03:31:01.930Z,57.25
2022-10-13T03:33:28.402Z,58.21
2022-10-13T03:35:54.902Z,58.04
2022-10-13T03:38:21.363Z,58.42
2022-10-13T03:40:47.765Z,57.93
2022-10-13T03:43:14.227Z,57.38
2022-10-13T03:45:40.681Z,56.95
2022-10-13T03:48:07.503Z,56.85
2022-10-13T03:50:33.977Z,57.10
2022-10-13T03:53:00.452Z,57.84
2022-10-13T03:55:27.074Z,56.37
2022-10-13T03:57:53.591Z,58.08
2022-10-13T04:00:20.228Z,58.85
2022-10-13T04:02:49.210Z,59.66
2022-10-13T04:05:15.737Z,59.66
2022-10-13T04:07:42.512Z,58.23
2022-10-13T04:10:11.562Z,57.56
2022-10-13T04:12:38.244Z,57.64
2022-10-13T04:15:05.398Z,57.41
2022-10-13T04:17:31.830Z,58.85
2022-10-13T04:19:58.312Z,61.46
2022-10-13T04:22:24.841Z,60.03
2022-10-13T04:24:51.477Z,60.96
2022-10-13T04:27:19.869Z,62.77
2022-10-13T04:29:46.374Z,61.28
2022-10-13T04:32:12.887Z,60.75
2022-10-13T04:34:39.351Z,60.53
2022-10-13T04:37:05.827Z,60.36
2022-10-13T04:39:32.321Z,60.32
2022-10-13T04:41:59.126Z,59.29
2022-10-13T04:44:25.721Z,57.86
2022-10-13T04:46:52.269Z,59.31
2022-10-13T04:49:18.725Z,60.32
2022-10-13T04:51:45.244Z,61.49
2022-10-13T04:54:11.769Z,60.03
2022-10-13T04:56:38.641Z,60.77
2022-10-13T04:59:05.861Z,60.78
2022-10-13T05:01:33.126Z,60.45
2022-10-13T05:04:01.746Z,60.18
2022-10-13T05:06:58.914Z,60.29
2022-10-13T05:09:25.871Z,60.83
2022-10-13T05:11:54.358Z,60.40
2022-10-13T05:14:22.006Z,60.46
2022-10-13T05:16:49.045Z,60.77
2022-10-13T05:19:15.573Z,61.37
2022-10-13T05:21:42.377Z,61.39
2022-10-13T05:24:13.811Z,60.06
2022-10-13T05:26:40.691Z,59.58
2022-10-13T05:29:07.135Z,58.79
2022-10-13T05:31:36.155Z,60.25
2022-10-13T05:34:03.093Z,60.81
2022-10-13T05:36:32.623Z,60.43
2022-10-13T05:39:01.556Z,60.01
2022-10-13T05:41:28.787Z,61.87
2022-10-13T05:43:59.406Z,61.67
2022-10-13T05:46:25.991Z,61.29
2022-10-13T05:48:52.763Z,61.86
2022-10-13T05:51:33.752Z,62.44
2022-10-13T05:54:24.389Z,61.39
2022-10-13T05:57:04.401Z,60.88
2022-10-13T05:59:35.477Z,60.98
2022-10-13T06:02:02.379Z,61.18
2022-10-13T06:04:34.601Z,61.00
2022-10-13T06:07:01.098Z,60.05
2022-10-13T06:09:34.568Z,60.81
2022-10-13T06:12:01.506Z,61.75
2022-10-13T06:14:28.046Z,59.30
2022-10-13T06:16:54.499Z,58.95
2022-10-13T06:19:21.015Z,60.05
2022-10-13T06:21:47.536Z,59.03
2022-10-13T06:24:14.131Z,58.12
2022-10-13T06:26:40.858Z,59.37
2022-10-13T06:29:07.691Z,59.02
2022-10-13T06:31:34.262Z,60.86
2022-10-13T06:34:00.790Z,59.07
2022-10-13T06:36:27.681Z,59.23
2022-10-13T06:38:54.206Z,58.81
2022-10-13T06:41:20.928Z,57.64
2022-10-13T06:43:47.565Z,57.01
2022-10-13T06:46:14.155Z,57.77
2022-10-13T06:48:40.787Z,56.41
2022-10-13T06:51:09.438Z,56.08
2022-10-13T06:53:36.013Z,56.86
2022-10-13T06:56:05.054Z,55.54
2022-10-13T06:58:31.744Z,57.66
2022-10-13T07:00:58.316Z,57.35
2022-10-13T07:03:25.323Z,58.55
2022-10-13T07:05:51.979Z,58.53
2022-10-13T07:08:19.044Z,58.26
2022-10-13T07:10:45.642Z,58.29
2022-10-13T07:13:12.223Z,57.07
2022-10-13T07:15:39.978Z,57.16
2022-10-13T07:18:06.992Z,57.84
2022-10-13T07:20:33.769Z,58.02
2022-10-13T07:23:00.352Z,57.30
2022-10-13T07:25:26.851Z,56.84
2022-10-13T07:27:53.384Z,56.30
2022-10-13T07:30:20.012Z,56.15
2022-10-13T07:32:47.629Z,55.41
2022-10-13T07:35:14.155Z,56.17
2022-10-13T07:37:40.739Z,53.81
2022-10-13T07:40:08.122Z,53.05
2022-10-13T07:42:34.699Z,52.46
2022-10-13T07:45:02.219Z,54.67
2022-10-13T07:47:29.269Z,52.35
2022-10-13T07:49:55.881Z,53.34
2022-10-13T07:52:23.287Z,52.01
2022-10-13T07:54:50.749Z,51.25
2022-10-13T07:57:17.653Z,51.15
2022-10-13T07:59:44.198Z,51.85
2022-10-13T08:02:10.678Z,50.55
2022-10-13T08:04:37.262Z,50.59
2022-10-13T08:07:05.636Z,50.36
2022-10-13T08:09:32.350Z,50.39
2022-10-13T08:12:00.887Z,47.39
2022-10-13T08:14:29.051Z,46.16
2022-10-13T08:16:56.184Z,46.74
2022-10-13T08:19:22.956Z,46.72
2022-10-13T08:21:59.259Z,46.05
2022-10-13T08:24:27.161Z,49.07
2022-10-13T08:26:53.857Z,48.49
2022-10-13T08:29:23.808Z,48.89
2022-10-13T08:31:55.338Z,48.58
2022-10-13T08:34:23.342Z,46.67
2022-10-13T08:36:53.388Z,48.99
2022-10-13T08:39:21.218Z,47.69
2022-10-13T08:41:47.909Z,46.80
2022-10-13T08:47:28.409Z,47.22
2022-10-13T08:50:01.458Z,49.86
2022-10-13T08:52:44.287Z,47.82
2022-10-13T08:55:18.148Z,47.91
2022-10-13T08:57:44.624Z,46.06
2022-10-13T09:00:13.306Z,48.76
2022-10-13T09:02:40.183Z,47.16
2022-10-13T09:05:14.215Z,48.74
2022-10-13T09:07:41.134Z,48.32
2022-10-13T09:10:09.775Z,49.10
2022-10-13T09:12:36.342Z,46.92
2022-10-13T09:15:09.900Z,45.41
2022-10-13T09:17:38.047Z,44.15
2022-10-13T09:20:06.202Z,43.86
2022-10-13T09:22:37.981Z,44.00
2022-10-13T09:25:12.454Z,44.29
2022-10-13T09:27:59.838Z,45.24
2022-10-13T09:30:31.457Z,47.61
2022-10-13T09:33:13.068Z,47.75
2022-10-13T09:35:40.536Z,50.39
2022-10-13T09:38:19.866Z,48.78
2022-10-13T09:41:16.850Z,50.44
2022-10-13T09:43:46.276Z,49.70
2022-10-13T09:46:32.107Z,48.41
2022-10-13T09:49:05.027Z,48.23
2022-10-13T09:51:37.653Z,48.56
2022-10-13T09:54:05.065Z,47.93
2022-10-13T09:56:49.512Z,47.14
2022-10-13T09:59:23.086Z,44.90
2022-10-13T10:01:50.643Z,43.16
2022-10-13T10:04:32.136Z,41.32
2022-10-13T10:06:58.615Z,40.73
2022-10-13T10:09:41.796Z,37.48
2022-10-13T10:12:13.434Z,35.98
2022-10-13T10:14:39.964Z,33.93
2022-10-13T10:17:09.484Z,34.68
2022-10-13T10:19:52.218Z,33.78
2022-10-13T10:22:40.469Z,32.43
2022-10-13T10:25:25.925Z,34.93
2022-10-13T10:28:29.708Z,34.78
2022-10-13T10:31:06.875Z,38.78
2022-10-13T10:33:49.413Z,37.35
2022-10-13T10:36:22.429Z,34.84
2022-10-13T10:38:56.263Z,37.58
2022-10-13T10:41:35.986Z,34.01
2022-10-13T10:44:04.746Z,34.73
2022-10-13T10:46:35.689Z,35.32
2022-10-13T10:49:14.365Z,32.21
2022-10-13T10:51:40.988Z,34.02
2022-10-13T10:54:20.422Z,33.89
2022-10-13T10:57:33.454Z,32.88
2022-10-13T11:00:18.058Z,31.87
2022-10-13T11:02:52.123Z,31.05
2022-10-13T11:05:18.831Z,30.87
2022-10-13T11:07:55.930Z,30.84
2022-10-13T11:10:22.869Z,31.95
2022-10-13T11:12:52.616Z,30.51
2022-10-13T11:15:26.233Z,32.30
2022-10-13T11:17:53.918Z,30.90
2022-10-13T11:20:20.543Z,27.67
2022-10-13T11:22:58.851Z,27.12
2022-10-13T11:25:40.604Z,26.14
2022-10-13T11:28:22.537Z,26.27
2022-10-13T11:30:52.615Z,26.36
2022-10-13T11:33:36.196Z,22.31
2022-10-13T11:36:39.494Z,21.73
2022-10-13T11:42:10.187Z,24.21
2022-10-13T11:44:58.213Z,20.71
2022-10-13T11:47:30.813Z,18.78
2022-10-13T11:50:03.542Z,19.44
2022-10-13T11:52:45.680Z,18.96
2022-10-13T11:55:15.562Z,16.86
2022-10-13T11:57:42.186Z,18.41
2022-10-13T12:00:15.475Z,19.64
2022-10-13T12:02:50.810Z,19.71
2022-10-13T12:05:22.535Z,22.82
2022-10-13T12:07:52.067Z,21.98
2022-10-13T12:10:23.976Z,25.70
2022-10-13T12:12:50.986Z,28.55
2022-10-13T12:15:31.346Z,31.67
2022-10-13T12:17:58.003Z,32.17
2022-10-13T12:20:30.308Z,34.86
2022-10-13T12:22:57.550Z,34.92
2022-10-13T12:25:26.750Z,35.67
2022-10-13T12:27:59.032Z,37.58
2022-10-13T12:30:30.138Z,38.60
2022-10-13T12:32:59.099Z,36.06
2022-10-13T12:35:28.434Z,37.67
2022-10-13T12:37:55.841Z,38.07
2022-10-13T12:40:22.839Z,37.54
2022-10-13T12:42:49.750Z,40.88
2022-10-13T12:45:18.533Z,39.88
2022-10-13T12:47:45.059Z,40.50
2022-10-13T12:50:30.013Z,39.21
2022-10-13T12:53:09.121Z,39.59
2022-10-13T12:55:58.905Z,40.50
2022-10-13T12:58:27.538Z,40.03
2022-10-13T13:01:08.193Z,40.66
2022-10-13T13:03:37.098Z,40.23
2022-10-13T13:06:22.643Z,40.77
2022-10-13T13:09:07.207Z,41.34
2022-10-13T13:11:36.222Z,42.61
2022-10-13T13:14:41.943Z,42.81
2022-10-13T13:17:12.885Z,42.93
2022-10-13T13:19:41.287Z,43.64
2022-10-13T13:22:08.282Z,42.90
2022-10-13T13:24:40.210Z,44.18
2022-10-13T13:27:33.163Z,45.16
2022-10-13T13:29:59.715Z,45.44
2022-10-13T13:32:27.954Z,45.00
2022-10-13T13:34:54.598Z,43.64
2022-10-13T13:37:31.068Z,44.52
2022-10-13T13:39:58.587Z,45.04
2022-10-13T13:42:26.741Z,45.27
2022-10-13T13:44:53.230Z,45.33
2022-10-13T13:47:22.371Z,44.46
2022-10-13T13:49:50.831Z,44.62
2022-10-13T13:52:18.360Z,46.66
2022-10-13T13:54:45.525Z,49.43
2022-10-13T13:57:13.407Z,51.94
2022-10-13T13:59:41.142Z,54.51
2022-10-13T14:02:14.931Z,56.80
2022-10-13T14:04:41.569Z,58.57
2022-10-13T14:07:08.275Z,60.31
2022-10-13T14:09:34.808Z,60.73
2022-10-13T14:12:01.365Z,60.25
2022-10-13T14:14:30.673Z,61.99
2022-10-13T14:16:58.283Z,61.56
2022-10-13T14:19:24.841Z,62.60
2022-10-13T14:21:51.981Z,63.59
2022-10-13T14:24:19.472Z,64.16
2022-10-13T14:26:46.223Z,63.59
2022-10-13T14:29:13.452Z,63.55
2022-10-13T14:31:40.334Z,64.23
2022-10-13T14:34:07.103Z,64.36
2022-10-13T14:36:33.636Z,63.49
2022-10-13T14:39:00.215Z,64.85
2022-10-13T14:41:26.869Z,63.36
2022-10-13T14:43:54.554Z,65.29
2022-10-13T14:46:21.487Z,64.10
2022-10-13T14:48:48.397Z,64.16
2022-10-13T14:51:15.071Z,64.57
2022-10-13T14:53:44.571Z,64.77
2022-10-13T14:56:23.094Z,63.87
2022-10-13T14:58:51.766Z,63.86
2022-10-13T15:01:18.909Z,64.45
2022-10-13T15:03:45.989Z,64.15
2022-10-13T15:06:21.561Z,63.96
2022-10-13T15:08:48.573Z,64.00
2022-10-13T15:11:16.350Z,66.18
2022-10-13T15:13:42.836Z,64.83
2022-10-13T15:16:16.105Z,64.52
2022-10-13T15:18:42.784Z,64.46
2022-10-13T15:21:09.693Z,66.31
2022-10-13T15:23:36.129Z,66.45
2022-10-13T15:26:03.590Z,65.42
2022-10-13T15:28:35.405Z,64.16
2022-10-13T15:31:01.963Z,65.63
2022-10-13T15:33:29.620Z,65.63
2022-10-13T15:35:56.860Z,65.05
2022-10-13T15:38:23.637Z,65.53
2022-10-13T15:40:50.780Z,65.25
2022-10-13T15:43:17.972Z,64.47
2022-10-13T15:45:54.987Z,63.77
2022-10-13T15:48:21.682Z,63.86
2022-10-13T15:50:48.158Z,63.92
2022-10-13T15:53:14.868Z,63.74
2022-10-13T15:55:41.366Z,63.77
2022-10-13T15:58:11.332Z,64.42
2022-10-13T16:00:40.678Z,64.39
2022-10-13T16:03:07.700Z,63.60
2022-10-13T16:05:34.294Z,64.76
2022-10-13T16:08:00.781Z,65.46
2022-10-13T16:10:27.273Z,63.58
2022-10-13T16:12:53.712Z,63.57
2022-10-13T16:15:20.288Z,63.95
2022-10-13T16:17:46.925Z,64.36
2022-10-13T16:20:14.113Z,64.95
2022-10-13T16:22:40.613Z,63.88
2022-10-13T16:25:07.597Z,65.36
2022-10-13T16:27:34.295Z,64.82
2022-10-13T16:30:00.765Z,64.52
2022-10-13T16:32:27.282Z,65.14
2022-10-13T16:34:53.806Z,64.81
2022-10-13T16:37:20.744Z,64.79
2022-10-13T16:39:51.510Z,65.09
2022-10-13T16:42:18.767Z,64.13
2022-10-13T16:44:45.229Z,63.74
2022-10-13T16:47:15.937Z,65.00
2022-10-13T16:49:44.651Z,66.28
2022-10-13T16:52:11.127Z,64.99
2022-10-13T16:54:37.569Z,65.14
2022-10-13T16:57:04.258Z,65.41
2022-10-13T16:59:30.746Z,66.50
2022-10-13T17:01:57.864Z,65.74
2022-10-13T17:04:24.652Z,65.22
2022-10-13T17:06:51.254Z,65.59
2022-10-13T17:09:17.757Z,64.97
2022-10-13T17:11:44.294Z,65.17
2022-10-13T17:14:10.971Z,65.48
2022-10-13T17:16:37.475Z,65.98
2022-10-13T17:19:04.063Z,66.29
2022-10-13T17:21:31.158Z,66.04
2022-10-13T17:23:58.309Z,66.70
2022-10-13T17:26:26.001Z,67.77
2022-10-13T17:28:53.459Z,66.52
2022-10-13T17:31:21.775Z,66.04
2022-10-13T17:33:49.670Z,65.80
2022-10-13T17:36:26.991Z,66.05
2022-10-13T17:38:55.837Z,65.79
2022-10-13T17:41:23.082Z,65.48
2022-10-13T17:43:51.396Z,67.17
2022-10-13T17:49:06.770Z,65.43
2022-10-13T17:51:33.292Z,67.18
2022-10-13T17:54:00.196Z,65.69
2022-10-13T17:56:27.561Z,65.29
2022-10-13T17:58:54.412Z,65.12
2022-10-13T18:01:27.341Z,66.28
2022-10-13T18:03:57.123Z,66.44
2022-10-13T18:06:24.145Z,66.16
2022-10-13T18:08:50.928Z,66.87
2022-10-13T18:11:19.798Z,67.28
2022-10-13T18:13:46.438Z,66.06
2022-10-13T18:16:21.576Z,65.20
2022-10-13T18:18:50.028Z,65.20
2022-10-13T18:21:22.223Z,66.67
2022-10-13T18:23:48.972Z,65.84
2022-10-13T18:26:19.518Z,64.87
2022-10-13T18:28:47.910Z,64.90
2022-10-13T18:31:17.531Z,64.87
2022-10-13T18:33:44.572Z,64.31
2022-10-13T18:36:16.089Z,63.37
2022-10-13T18:38:43.018Z,65.26
2022-10-13T18:41:09.519Z,64.07
2022-10-13T18:43:37.082Z,63.56
2022-10-13T18:46:04.197Z,63.51
2022-10-13T18:48:31.798Z,62.91
2022-10-13T18:51:06.630Z,64.58
2022-10-13T18:53:35.213Z,63.81
2022-10-13T18:56:05.031Z,63.93
2022-10-13T18:58:32.194Z,65.09
2022-10-13T19:01:03.340Z,64.86
2022-10-13T19:03:31.572Z,66.33
2022-10-13T19:05:58.056Z,65.43
2022-10-13T19:08:25.421Z,64.58
2022-10-13T19:10:52.375Z,67.00
2022-10-13T19:13:18.956Z,67.78
2022-10-13T19:15:45.542Z,68.33
2022-10-13T19:18:12.254Z,67.56
2022-10-13T19:20:38.857Z,68.52
2022-10-13T19:23:05.414Z,70.79
2022-10-13T19:25:32.032Z,71.57
2022-10-13T19:27:58.889Z,71.53
2022-10-13T19:30:26.480Z,71.40
2022-10-13T19:32:52.961Z,70.76
2022-10-13T19:35:19.463Z,70.38
2022-10-13T19:37:45.913Z,71.75
2022-10-13T19:40:12.368Z,70.63
2022-10-13T19:42:38.904Z,71.24
2022-10-13T19:45:06.111Z,69.92
2022-10-13T19:47:33.091Z,70.39
2022-10-13T19:49:59.553Z,69.33
2022-10-13T19:52:26.191Z,71.00
2022-10-13T19:54:53.069Z,71.79
2022-10-13T19:57:19.850Z,72.38
2022-10-13T19:59:47.831Z,71.04
2022-10-13T20:02:14.427Z,69.31
2022-10-13T20:04:41.057Z,69.74
2022-10-13T20:07:07.559Z,69.74
2022-10-13T20:09:34.321Z,69.79
2022-10-13T20:12:00.904Z,71.37
2022-10-13T20:14:27.440Z,68.82
2022-10-13T20:16:56.458Z,68.34
2022-10-13T20:19:22.915Z,70.62
2022-10-13T20:21:52.434Z,71.45
2022-10-13T20:24:23.051Z,71.39
2022-10-13T20:26:50.336Z,70.96
2022-10-13T20:29:16.966Z,72.31
2022-10-13T20:31:47.785Z,73.01
2022-10-13T20:34:14.342Z,73.57
2022-10-13T20:36:41.139Z,73.73
2022-10-13T20:39:08.825Z,74.60
2022-10-13T20:41:35.398Z,73.25
2022-10-13T20:44:02.113Z,71.48
2022-10-13T20:46:28.723Z,71.48
2022-10-13T20:49:13.084Z,70.44
2022-10-13T20:51:41.410Z,70.03
2022-10-13T20:54:08.630Z,71.04
2022-10-13T20:56:35.625Z,71.38
2022-10-13T20:59:04.285Z,70.21
2022-10-13T21:01:31.054Z,70.09
2022-10-13T21:03:58.609Z,69.84
2022-10-13T21:06:26.396Z,68.54
2022-10-13T21:08:53.263Z,68.94
2022-10-13T21:11:21.054Z,69.27
2022-10-13T21:13:48.318Z,68.52
2022-10-13T21:16:27.214Z,70.06
2022-10-13T21:18:54.862Z,69.07
2022-10-13T21:21:23.256Z,69.12
2022-10-13T21:23:54.027Z,69.07
2022-10-13T21:26:22.275Z,67.81
2022-10-13T21:28:50.046Z,67.51
2022-10-13T21:31:18.113Z,68.43
2022-10-13T21:33:44.866Z,67.34
2022-10-13T21:36:13.953Z,66.95
2022-10-13T21:38:41.986Z,66.94
2022-10-13T21:41:10.130Z,69.11
2022-10-13T21:43:36.829Z,68.07
2022-10-13T21:46:09.448Z,71.08
2022-10-13T21:48:36.486Z,69.94
2022-10-13T21:51:23.452Z,69.98
2022-10-13T21:53:55.644Z,71.15
2022-10-13T21:56:23.141Z,71.53
2022-10-13T21:58:49.956Z,71.06
2022-10-13T22:01:20.183Z,70.83
2022-10-13T22:03:47.557Z,71.01
2022-10-13T22:06:18.991Z,71.21
2022-10-13T22:08:48.978Z,70.60
2022-10-13T22:11:16.469Z,70.53
2022-10-13T22:13:43.136Z,70.93
2022-10-13T22:16:14.432Z,70.08
2022-10-13T22:18:41.565Z,70.53
2022-10-13T22:21:13.567Z,71.90
2022-10-13T22:23:40.141Z,70.29
2022-10-13T22:26:07.903Z,69.61
2022-10-13T22:28:37.268Z,71.02
2022-10-13T22:31:09.515Z,69.04
2022-10-13T22:33:37.506Z,69.28
2022-10-13T22:36:13.378Z,69.95
2022-10-13T22:38:40.280Z,68.95
2022-10-13T22:41:08.239Z,67.81
2022-10-13T22:43:35.288Z,69.45
2022-10-13T22:46:02.038Z,68.87
2022-10-13T22:48:28.784Z,68.75
2022-10-13T22:50:56.205Z,68.07
2022-10-13T22:53:22.803Z,66.33
2022-10-13T22:55:49.241Z,68.67
2022-10-13T22:58:15.705Z,68.05
2022-10-13T23:00:42.277Z,67.85
2022-10-13T23:03:13.397Z,68.01
2022-10-13T23:05:47.637Z,68.05
2022-10-13T23:08:14.711Z,69.90
2022-10-13T23:10:41.253Z,68.38
2022-10-13T23:13:07.748Z,67.75
2022-10-13T23:15:34.270Z,67.16
2022-10-13T23:18:00.776Z,66.60
2022-10-13T23:20:27.309Z,68.00
2022-10-13T23:22:56.535Z,67.33
2022-10-13T23:25:22.992Z,66.44
2022-10-13T23:27:49.504Z,65.20
2022-10-13T23:30:16.148Z,65.38
2022-10-13T23:32:42.608Z,65.94
2022-10-13T23:35:09.308Z,64.75
2022-10-13T23:37:35.767Z,66.04
2022-10-13T23:40:02.214Z,65.02
2022-10-13T23:42:28.701Z,66.28
2022-10-13T23:44:55.200Z,68.28
2022-10-13T23:47:21.928Z,65.96
2022-10-13T23:49:48.522Z,64.87
2022-10-13T23:52:15.447Z,65.99
2022-10-13T23:54:41.898Z,66.57
2022-10-13T23:57:08.362Z,66.16
2022-10-13T23:59:35.092Z,64.78
